sensor_id;sensor_type;location;lat;lon;timestamp;P1;durP1;ratioP1;P2;durP2;ratioP2
21758;SDS011;11041;50.854;20.580;2023-03-14T00:01:28;11.85;;;5.95;;
21758;SDS011;11041;50.854;20.580;2023-03-14T00:03:55;10.45;;;5.78;;
21758;SDS011;11041;50.854;20.580;2023-03-14T00:06:21;10.70;;;6.22;;
21758;SDS011;11041;50.854;20.580;2023-03-14T00:08:49;10.75;;;6.13;;
21758;SDS011;11041;50.854;20.580;2023-03-14T00:11:18;8.73;;;5.53;;
21758;SDS011;11041;50.854;20.580;2023-03-14T00:13:47;9.82;;;6.07;;
21758;SDS011;11041;50.854;20.580;2023-03-14T00:16:17;10.25;;;5.82;;
21758;SDS011;11041;50.854;20.580;2023-03-14T00:18:45;9.85;;;5.97;;
21758;SDS011;11041;50.854;20.580;2023-03-14T00:21:12;10.82;;;5.10;;
21758;SDS011;11041;50.854;20.580;2023-03-14T00:23:40;10.25;;;5.93;;
21758;SDS011;11041;50.854;20.580;2023-03-14T00:26:11;10.55;;;5.50;;
21758;SDS011;11041;50.854;20.580;2023-03-14T00:28:41;10.70;;;5.80;;
21758;SDS011;11041;50.854;20.580;2023-03-14T00:31:10;8.68;;;6.00;;
21758;SDS011;11041;50.854;20.580;2023-03-14T00:33:40;8.68;;;5.18;;
21758;SDS011;11041;50.854;20.580;2023-03-14T00:36:09;6.30;;;4.63;;
21758;SDS011;11041;50.854;20.580;2023-03-14T00:38:42;8.70;;;4.90;;
21758;SDS011;11041;50.854;20.580;2023-03-14T00:41:14;7.28;;;4.72;;
21758;SDS011;11041;50.854;20.580;2023-03-14T00:43:44;15.05;;;6.97;;
21758;SDS011;11041;50.854;20.580;2023-03-14T00:46:12;10.98;;;4.80;;
21758;SDS011;11041;50.854;20.580;2023-03-14T00:48:39;12.77;;;5.13;;
21758;SDS011;11041;50.854;20.580;2023-03-14T00:51:07;7.18;;;4.57;;
21758;SDS011;11041;50.854;20.580;2023-03-14T00:53:35;8.38;;;5.18;;
21758;SDS011;11041;50.854;20.580;2023-03-14T00:56:06;10.05;;;5.65;;
21758;SDS011;11041;50.854;20.580;2023-03-14T00:58:36;6.65;;;4.43;;
21758;SDS011;11041;50.854;20.580;2023-03-14T01:01:10;8.02;;;4.60;;
21758;SDS011;11041;50.854;20.580;2023-03-14T01:03:41;7.53;;;4.65;;
21758;SDS011;11041;50.854;20.580;2023-03-14T01:08:37;8.00;;;4.55;;
21758;SDS011;11041;50.854;20.580;2023-03-14T01:11:08;8.88;;;4.63;;
21758;SDS011;11041;50.854;20.580;2023-03-14T01:13:41;8.25;;;4.90;;
21758;SDS011;11041;50.854;20.580;2023-03-14T01:16:09;10.15;;;5.38;;
21758;SDS011;11041;50.854;20.580;2023-03-14T01:18:38;7.82;;;4.85;;
21758;SDS011;11041;50.854;20.580;2023-03-14T01:21:11;5.88;;;4.10;;
21758;SDS011;11041;50.854;20.580;2023-03-14T01:23:48;7.72;;;4.70;;
21758;SDS011;11041;50.854;20.580;2023-03-14T01:26:17;8.40;;;5.15;;
21758;SDS011;11041;50.854;20.580;2023-03-14T01:28:46;5.43;;;4.10;;
21758;SDS011;11041;50.854;20.580;2023-03-14T01:31:15;8.82;;;4.97;;
21758;SDS011;11041;50.854;20.580;2023-03-14T01:33:42;7.28;;;4.63;;
21758;SDS011;11041;50.854;20.580;2023-03-14T01:36:10;6.20;;;4.53;;
21758;SDS011;11041;50.854;20.580;2023-03-14T01:38:38;13.55;;;4.93;;
21758;SDS011;11041;50.854;20.580;2023-03-14T01:41:05;7.00;;;4.35;;
21758;SDS011;11041;50.854;20.580;2023-03-14T01:43:37;6.53;;;4.43;;
21758;SDS011;11041;50.854;20.580;2023-03-14T01:51:34;8.73;;;5.10;;
21758;SDS011;11041;50.854;20.580;2023-03-14T01:54:37;7.10;;;4.60;;
21758;SDS011;11041;50.854;20.580;2023-03-14T01:59:42;6.65;;;4.13;;
21758;SDS011;11041;50.854;20.580;2023-03-14T02:02:17;6.05;;;4.03;;
21758;SDS011;11041;50.854;20.580;2023-03-14T02:04:45;7.97;;;4.45;;
21758;SDS011;11041;50.854;20.580;2023-03-14T02:07:22;8.07;;;4.43;;
21758;SDS011;11041;50.854;20.580;2023-03-14T02:10:06;5.35;;;4.10;;
21758;SDS011;11041;50.854;20.580;2023-03-14T02:12:35;5.57;;;4.18;;
21758;SDS011;11041;50.854;20.580;2023-03-14T02:15:04;6.70;;;4.63;;
21758;SDS011;11041;50.854;20.580;2023-03-14T02:17:32;7.60;;;4.55;;
21758;SDS011;11041;50.854;20.580;2023-03-14T02:23:11;7.50;;;4.78;;
21758;SDS011;11041;50.854;20.580;2023-03-14T02:25:44;6.88;;;4.68;;
21758;SDS011;11041;50.854;20.580;2023-03-14T02:28:22;7.15;;;4.28;;
21758;SDS011;11041;50.854;20.580;2023-03-14T02:30:49;6.55;;;4.55;;
21758;SDS011;11041;50.854;20.580;2023-03-14T02:33:17;9.45;;;7.07;;
21758;SDS011;11041;50.854;20.580;2023-03-14T02:35:49;8.57;;;5.38;;
21758;SDS011;11041;50.854;20.580;2023-03-14T02:38:24;14.98;;;8.38;;
21758;SDS011;11041;50.854;20.580;2023-03-14T02:41:13;8.07;;;5.22;;
21758;SDS011;11041;50.854;20.580;2023-03-14T02:43:41;7.05;;;4.70;;
21758;SDS011;11041;50.854;20.580;2023-03-14T02:46:12;6.68;;;4.40;;
21758;SDS011;11041;50.854;20.580;2023-03-14T02:51:27;9.30;;;4.40;;
21758;SDS011;11041;50.854;20.580;2023-03-14T02:53:54;6.25;;;4.47;;
21758;SDS011;11041;50.854;20.580;2023-03-14T02:56:21;6.72;;;4.82;;
21758;SDS011;11041;50.854;20.580;2023-03-14T02:58:48;6.50;;;4.68;;
21758;SDS011;11041;50.854;20.580;2023-03-14T03:01:14;5.78;;;4.65;;
21758;SDS011;11041;50.854;20.580;2023-03-14T03:03:40;5.88;;;4.50;;
21758;SDS011;11041;50.854;20.580;2023-03-14T03:06:07;7.38;;;4.63;;
21758;SDS011;11041;50.854;20.580;2023-03-14T03:08:34;6.10;;;5.07;;
21758;SDS011;11041;50.854;20.580;2023-03-14T03:11:01;6.22;;;4.47;;
21758;SDS011;11041;50.854;20.580;2023-03-14T03:13:29;6.90;;;4.85;;
21758;SDS011;11041;50.854;20.580;2023-03-14T03:15:55;8.60;;;5.68;;
21758;SDS011;11041;50.854;20.580;2023-03-14T03:18:21;8.73;;;6.57;;
21758;SDS011;11041;50.854;20.580;2023-03-14T03:20:48;7.78;;;5.38;;
21758;SDS011;11041;50.854;20.580;2023-03-14T03:23:15;25.27;;;11.63;;
21758;SDS011;11041;50.854;20.580;2023-03-14T03:25:41;23.55;;;12.30;;
21758;SDS011;11041;50.854;20.580;2023-03-14T03:28:14;16.02;;;7.88;;
21758;SDS011;11041;50.854;20.580;2023-03-14T03:30:41;9.50;;;6.28;;
21758;SDS011;11041;50.854;20.580;2023-03-14T03:33:08;10.93;;;5.88;;
21758;SDS011;11041;50.854;20.580;2023-03-14T03:35:43;10.13;;;6.70;;
21758;SDS011;11041;50.854;20.580;2023-03-14T03:38:15;8.55;;;4.90;;
21758;SDS011;11041;50.854;20.580;2023-03-14T03:40:43;7.50;;;4.85;;
21758;SDS011;11041;50.854;20.580;2023-03-14T03:43:09;12.65;;;6.22;;
21758;SDS011;11041;50.854;20.580;2023-03-14T03:45:36;10.55;;;6.97;;
21758;SDS011;11041;50.854;20.580;2023-03-14T03:48:02;11.63;;;7.75;;
21758;SDS011;11041;50.854;20.580;2023-03-14T03:50:29;17.40;;;10.00;;
21758;SDS011;11041;50.854;20.580;2023-03-14T03:52:56;16.90;;;9.55;;
21758;SDS011;11041;50.854;20.580;2023-03-14T03:55:23;18.48;;;8.75;;
21758;SDS011;11041;50.854;20.580;2023-03-14T03:57:51;17.10;;;8.15;;
21758;SDS011;11041;50.854;20.580;2023-03-14T04:00:18;12.70;;;7.10;;
21758;SDS011;11041;50.854;20.580;2023-03-14T04:02:44;13.52;;;7.50;;
21758;SDS011;11041;50.854;20.580;2023-03-14T04:05:11;17.52;;;10.45;;
21758;SDS011;11041;50.854;20.580;2023-03-14T04:07:37;13.13;;;8.80;;
21758;SDS011;11041;50.854;20.580;2023-03-14T04:10:04;14.30;;;8.98;;
21758;SDS011;11041;50.854;20.580;2023-03-14T04:12:30;16.88;;;10.35;;
21758;SDS011;11041;50.854;20.580;2023-03-14T04:14:57;140.70;;;53.10;;
21758;SDS011;11041;50.854;20.580;2023-03-14T04:17:23;156.02;;;53.92;;
21758;SDS011;11041;50.854;20.580;2023-03-14T04:19:50;119.57;;;43.83;;
21758;SDS011;11041;50.854;20.580;2023-03-14T04:22:18;58.35;;;27.55;;
21758;SDS011;11041;50.854;20.580;2023-03-14T04:24:46;21.90;;;11.85;;
21758;SDS011;11041;50.854;20.580;2023-03-14T04:27:12;24.13;;;12.60;;
21758;SDS011;11041;50.854;20.580;2023-03-14T04:29:41;16.65;;;8.95;;
21758;SDS011;11041;50.854;20.580;2023-03-14T04:32:08;11.27;;;7.18;;
21758;SDS011;11041;50.854;20.580;2023-03-14T04:34:36;8.80;;;6.90;;
21758;SDS011;11041;50.854;20.580;2023-03-14T04:37:02;12.40;;;7.75;;
21758;SDS011;11041;50.854;20.580;2023-03-14T04:39:29;9.07;;;6.85;;
21758;SDS011;11041;50.854;20.580;2023-03-14T04:41:55;17.23;;;12.20;;
21758;SDS011;11041;50.854;20.580;2023-03-14T04:44:22;15.50;;;9.52;;
21758;SDS011;11041;50.854;20.580;2023-03-14T04:46:48;79.07;;;35.75;;
21758;SDS011;11041;50.854;20.580;2023-03-14T04:49:15;133.40;;;59.60;;
21758;SDS011;11041;50.854;20.580;2023-03-14T04:51:42;58.92;;;26.65;;
21758;SDS011;11041;50.854;20.580;2023-03-14T04:54:08;17.30;;;9.90;;
21758;SDS011;11041;50.854;20.580;2023-03-14T04:56:35;15.45;;;7.82;;
21758;SDS011;11041;50.854;20.580;2023-03-14T04:59:03;9.77;;;6.60;;
21758;SDS011;11041;50.854;20.580;2023-03-14T05:01:30;8.27;;;6.10;;
21758;SDS011;11041;50.854;20.580;2023-03-14T05:03:57;9.23;;;5.68;;
21758;SDS011;11041;50.854;20.580;2023-03-14T05:06:23;7.63;;;5.13;;
21758;SDS011;11041;50.854;20.580;2023-03-14T05:08:50;9.75;;;5.20;;
21758;SDS011;11041;50.854;20.580;2023-03-14T05:11:17;6.10;;;4.88;;
21758;SDS011;11041;50.854;20.580;2023-03-14T05:13:43;7.00;;;4.75;;
21758;SDS011;11041;50.854;20.580;2023-03-14T05:16:10;7.93;;;4.40;;
21758;SDS011;11041;50.854;20.580;2023-03-14T05:18:37;8.13;;;5.10;;
21758;SDS011;11041;50.854;20.580;2023-03-14T05:21:03;6.13;;;4.50;;
21758;SDS011;11041;50.854;20.580;2023-03-14T05:23:30;8.15;;;4.97;;
21758;SDS011;11041;50.854;20.580;2023-03-14T05:25:57;7.85;;;4.68;;
21758;SDS011;11041;50.854;20.580;2023-03-14T05:28:24;7.30;;;5.88;;
21758;SDS011;11041;50.854;20.580;2023-03-14T05:30:51;7.95;;;4.68;;
21758;SDS011;11041;50.854;20.580;2023-03-14T05:33:17;8.63;;;5.60;;
21758;SDS011;11041;50.854;20.580;2023-03-14T05:35:43;6.18;;;4.65;;
21758;SDS011;11041;50.854;20.580;2023-03-14T05:38:10;6.93;;;4.97;;
21758;SDS011;11041;50.854;20.580;2023-03-14T05:40:37;7.25;;;4.80;;
21758;SDS011;11041;50.854;20.580;2023-03-14T05:43:03;6.60;;;5.28;;
21758;SDS011;11041;50.854;20.580;2023-03-14T05:45:33;10.40;;;6.63;;
21758;SDS011;11041;50.854;20.580;2023-03-14T05:48:01;9.93;;;4.97;;
21758;SDS011;11041;50.854;20.580;2023-03-14T05:50:28;5.63;;;4.30;;
21758;SDS011;11041;50.854;20.580;2023-03-14T05:52:54;6.93;;;4.55;;
21758;SDS011;11041;50.854;20.580;2023-03-14T05:55:21;8.07;;;5.00;;
21758;SDS011;11041;50.854;20.580;2023-03-14T05:57:48;5.60;;;4.70;;
21758;SDS011;11041;50.854;20.580;2023-03-14T06:00:14;6.20;;;4.68;;
21758;SDS011;11041;50.854;20.580;2023-03-14T06:02:42;7.00;;;3.85;;
21758;SDS011;11041;50.854;20.580;2023-03-14T06:05:08;6.20;;;4.47;;
21758;SDS011;11041;50.854;20.580;2023-03-14T06:07:35;6.95;;;4.47;;
21758;SDS011;11041;50.854;20.580;2023-03-14T06:10:02;7.50;;;4.60;;
21758;SDS011;11041;50.854;20.580;2023-03-14T06:12:30;7.63;;;4.30;;
21758;SDS011;11041;50.854;20.580;2023-03-14T06:14:56;6.60;;;4.30;;
21758;SDS011;11041;50.854;20.580;2023-03-14T06:17:23;6.53;;;4.43;;
21758;SDS011;11041;50.854;20.580;2023-03-14T06:19:49;5.63;;;3.85;;
21758;SDS011;11041;50.854;20.580;2023-03-14T06:22:16;7.38;;;5.32;;
21758;SDS011;11041;50.854;20.580;2023-03-14T06:24:42;6.32;;;4.53;;
21758;SDS011;11041;50.854;20.580;2023-03-14T06:27:09;7.65;;;4.68;;
21758;SDS011;11041;50.854;20.580;2023-03-14T06:29:36;8.07;;;4.10;;
21758;SDS011;11041;50.854;20.580;2023-03-14T06:32:03;6.32;;;4.28;;
21758;SDS011;11041;50.854;20.580;2023-03-14T06:34:30;7.60;;;4.53;;
21758;SDS011;11041;50.854;20.580;2023-03-14T06:36:57;7.60;;;4.30;;
21758;SDS011;11041;50.854;20.580;2023-03-14T06:39:24;6.95;;;4.35;;
21758;SDS011;11041;50.854;20.580;2023-03-14T06:41:51;6.57;;;4.03;;
21758;SDS011;11041;50.854;20.580;2023-03-14T06:44:17;5.78;;;4.65;;
21758;SDS011;11041;50.854;20.580;2023-03-14T06:46:44;7.50;;;4.38;;
21758;SDS011;11041;50.854;20.580;2023-03-14T06:49:10;7.68;;;4.38;;
21758;SDS011;11041;50.854;20.580;2023-03-14T06:51:37;6.75;;;4.40;;
21758;SDS011;11041;50.854;20.580;2023-03-14T06:54:04;5.72;;;4.25;;
21758;SDS011;11041;50.854;20.580;2023-03-14T06:56:31;11.93;;;5.32;;
21758;SDS011;11041;50.854;20.580;2023-03-14T06:58:57;5.35;;;4.10;;
21758;SDS011;11041;50.854;20.580;2023-03-14T07:01:25;6.32;;;4.13;;
21758;SDS011;11041;50.854;20.580;2023-03-14T07:03:55;6.63;;;4.28;;
21758;SDS011;11041;50.854;20.580;2023-03-14T07:06:22;6.03;;;3.88;;
21758;SDS011;11041;50.854;20.580;2023-03-14T07:08:50;8.88;;;3.97;;
21758;SDS011;11041;50.854;20.580;2023-03-14T07:11:17;6.90;;;4.43;;
21758;SDS011;11041;50.854;20.580;2023-03-14T07:13:44;9.57;;;4.30;;
21758;SDS011;11041;50.854;20.580;2023-03-14T07:16:10;9.45;;;4.10;;
21758;SDS011;11041;50.854;20.580;2023-03-14T07:18:37;9.13;;;4.22;;
21758;SDS011;11041;50.854;20.580;2023-03-14T07:21:05;7.20;;;4.50;;
21758;SDS011;11041;50.854;20.580;2023-03-14T07:23:33;7.75;;;4.80;;
21758;SDS011;11041;50.854;20.580;2023-03-14T07:25:59;6.53;;;3.67;;
21758;SDS011;11041;50.854;20.580;2023-03-14T07:28:26;8.23;;;4.10;;
21758;SDS011;11041;50.854;20.580;2023-03-14T07:30:53;5.65;;;4.10;;
21758;SDS011;11041;50.854;20.580;2023-03-14T07:33:20;8.25;;;4.40;;
21758;SDS011;11041;50.854;20.580;2023-03-14T07:35:47;8.60;;;4.68;;
21758;SDS011;11041;50.854;20.580;2023-03-14T07:38:15;7.18;;;4.38;;
21758;SDS011;11041;50.854;20.580;2023-03-14T07:40:43;6.65;;;4.45;;
21758;SDS011;11041;50.854;20.580;2023-03-14T07:43:10;6.30;;;4.47;;
21758;SDS011;11041;50.854;20.580;2023-03-14T07:45:37;8.75;;;4.40;;
21758;SDS011;11041;50.854;20.580;2023-03-14T07:48:04;8.18;;;3.85;;
21758;SDS011;11041;50.854;20.580;2023-03-14T07:50:30;6.80;;;4.10;;
21758;SDS011;11041;50.854;20.580;2023-03-14T07:52:57;8.10;;;4.13;;
21758;SDS011;11041;50.854;20.580;2023-03-14T07:55:24;6.38;;;4.00;;
21758;SDS011;11041;50.854;20.580;2023-03-14T07:57:50;5.80;;;4.32;;
21758;SDS011;11041;50.854;20.580;2023-03-14T08:00:17;7.38;;;4.10;;
21758;SDS011;11041;50.854;20.580;2023-03-14T08:02:44;6.93;;;4.53;;
21758;SDS011;11041;50.854;20.580;2023-03-14T08:05:11;8.10;;;3.90;;
21758;SDS011;11041;50.854;20.580;2023-03-14T08:07:37;7.78;;;4.40;;
21758;SDS011;11041;50.854;20.580;2023-03-14T08:10:04;8.65;;;4.15;;
21758;SDS011;11041;50.854;20.580;2023-03-14T08:12:32;5.07;;;2.85;;
21758;SDS011;11041;50.854;20.580;2023-03-14T08:14:59;4.88;;;2.75;;
21758;SDS011;11041;50.854;20.580;2023-03-14T08:17:25;8.95;;;4.47;;
21758;SDS011;11041;50.854;20.580;2023-03-14T08:19:53;5.97;;;4.15;;
21758;SDS011;11041;50.854;20.580;2023-03-14T08:22:19;7.20;;;4.50;;
21758;SDS011;11041;50.854;20.580;2023-03-14T08:24:46;7.88;;;4.55;;
21758;SDS011;11041;50.854;20.580;2023-03-14T08:27:12;8.80;;;3.95;;
21758;SDS011;11041;50.854;20.580;2023-03-14T08:29:40;7.55;;;4.28;;
21758;SDS011;11041;50.854;20.580;2023-03-14T08:32:07;7.38;;;4.40;;
21758;SDS011;11041;50.854;20.580;2023-03-14T08:34:34;10.77;;;4.50;;
21758;SDS011;11041;50.854;20.580;2023-03-14T08:37:00;10.32;;;4.10;;
21758;SDS011;11041;50.854;20.580;2023-03-14T08:39:27;10.07;;;4.95;;
21758;SDS011;11041;50.854;20.580;2023-03-14T08:41:53;8.15;;;4.25;;
21758;SDS011;11041;50.854;20.580;2023-03-14T08:44:20;11.85;;;5.82;;
21758;SDS011;11041;50.854;20.580;2023-03-14T08:46:46;9.77;;;4.68;;
21758;SDS011;11041;50.854;20.580;2023-03-14T08:49:13;9.88;;;4.50;;
21758;SDS011;11041;50.854;20.580;2023-03-14T08:51:40;8.73;;;4.57;;
21758;SDS011;11041;50.854;20.580;2023-03-14T08:54:09;6.93;;;4.25;;
21758;SDS011;11041;50.854;20.580;2023-03-14T08:56:36;10.77;;;4.63;;
21758;SDS011;11041;50.854;20.580;2023-03-14T08:59:04;16.23;;;6.78;;
21758;SDS011;11041;50.854;20.580;2023-03-14T09:01:31;9.23;;;4.80;;
21758;SDS011;11041;50.854;20.580;2023-03-14T09:03:58;15.27;;;6.55;;
21758;SDS011;11041;50.854;20.580;2023-03-14T09:06:25;17.13;;;7.95;;
21758;SDS011;11041;50.854;20.580;2023-03-14T09:08:51;15.13;;;5.57;;
21758;SDS011;11041;50.854;20.580;2023-03-14T09:11:18;10.70;;;5.18;;
21758;SDS011;11041;50.854;20.580;2023-03-14T09:13:44;8.63;;;4.32;;
21758;SDS011;11041;50.854;20.580;2023-03-14T09:16:11;12.23;;;6.28;;
21758;SDS011;11041;50.854;20.580;2023-03-14T09:18:38;10.00;;;4.82;;
21758;SDS011;11041;50.854;20.580;2023-03-14T09:21:04;7.82;;;4.05;;
21758;SDS011;11041;50.854;20.580;2023-03-14T09:23:31;10.07;;;4.10;;
21758;SDS011;11041;50.854;20.580;2023-03-14T09:25:58;9.05;;;3.58;;
21758;SDS011;11041;50.854;20.580;2023-03-14T09:28:26;8.40;;;3.65;;
21758;SDS011;11041;50.854;20.580;2023-03-14T09:30:53;12.27;;;4.13;;
21758;SDS011;11041;50.854;20.580;2023-03-14T09:33:20;10.00;;;2.78;;
21758;SDS011;11041;50.854;20.580;2023-03-14T09:35:47;6.05;;;3.38;;
21758;SDS011;11041;50.854;20.580;2023-03-14T09:38:13;5.28;;;2.22;;
21758;SDS011;11041;50.854;20.580;2023-03-14T09:40:41;6.22;;;3.80;;
21758;SDS011;11041;50.854;20.580;2023-03-14T09:43:09;5.95;;;3.17;;
21758;SDS011;11041;50.854;20.580;2023-03-14T09:45:42;8.93;;;3.53;;
21758;SDS011;11041;50.854;20.580;2023-03-14T09:48:20;5.65;;;2.63;;
21758;SDS011;11041;50.854;20.580;2023-03-14T09:50:53;6.50;;;3.00;;
21758;SDS011;11041;50.854;20.580;2023-03-14T09:53:25;6.63;;;3.58;;
21758;SDS011;11041;50.854;20.580;2023-03-14T09:56:01;8.00;;;3.97;;
21758;SDS011;11041;50.854;20.580;2023-03-14T09:58:28;6.70;;;3.42;;
21758;SDS011;11041;50.854;20.580;2023-03-14T10:00:56;5.35;;;3.05;;
21758;SDS011;11041;50.854;20.580;2023-03-14T10:03:26;4.43;;;3.42;;
21758;SDS011;11041;50.854;20.580;2023-03-14T10:05:59;6.22;;;3.10;;
21758;SDS011;11041;50.854;20.580;2023-03-14T10:08:26;3.83;;;3.03;;
21758;SDS011;11041;50.854;20.580;2023-03-14T10:10:53;8.45;;;3.08;;
21758;SDS011;11041;50.854;20.580;2023-03-14T10:15:52;5.20;;;3.33;;
21758;SDS011;11041;50.854;20.580;2023-03-14T10:18:24;7.25;;;3.63;;
21758;SDS011;11041;50.854;20.580;2023-03-14T10:30:02;6.63;;;3.95;;
21758;SDS011;11041;50.854;20.580;2023-03-14T10:32:33;5.13;;;3.22;;
21758;SDS011;11041;50.854;20.580;2023-03-14T10:35:11;6.38;;;3.90;;
21758;SDS011;11041;50.854;20.580;2023-03-14T10:37:54;9.18;;;4.30;;
21758;SDS011;11041;50.854;20.580;2023-03-14T10:40:33;4.43;;;2.72;;
21758;SDS011;11041;50.854;20.580;2023-03-14T10:43:16;6.60;;;3.75;;
21758;SDS011;11041;50.854;20.580;2023-03-14T10:45:51;7.50;;;4.55;;
21758;SDS011;11041;50.854;20.580;2023-03-14T10:48:29;5.97;;;3.25;;
21758;SDS011;11041;50.854;20.580;2023-03-14T10:51:03;7.40;;;4.30;;
21758;SDS011;11041;50.854;20.580;2023-03-14T10:57:04;4.72;;;3.20;;
21758;SDS011;11041;50.854;20.580;2023-03-14T10:59:38;6.35;;;3.63;;
21758;SDS011;11041;50.854;20.580;2023-03-14T11:07:51;6.47;;;3.65;;
21758;SDS011;11041;50.854;20.580;2023-03-14T11:10:33;6.07;;;4.15;;
21758;SDS011;11041;50.854;20.580;2023-03-14T11:13:14;6.20;;;3.72;;
21758;SDS011;11041;50.854;20.580;2023-03-14T11:22:03;4.18;;;3.00;;
21758;SDS011;11041;50.854;20.580;2023-03-14T11:25:02;9.88;;;4.03;;
21758;SDS011;11041;50.854;20.580;2023-03-14T11:36:08;7.90;;;3.15;;
21758;SDS011;11041;50.854;20.580;2023-03-14T11:38:42;2.92;;;2.28;;
21758;SDS011;11041;50.854;20.580;2023-03-14T11:41:36;6.72;;;3.10;;
21758;SDS011;11041;50.854;20.580;2023-03-14T11:44:17;6.32;;;3.70;;
21758;SDS011;11041;50.854;20.580;2023-03-14T11:46:55;4.88;;;2.50;;
21758;SDS011;11041;50.854;20.580;2023-03-14T11:57:53;5.72;;;2.95;;
21758;SDS011;11041;50.854;20.580;2023-03-14T12:00:38;4.03;;;3.25;;
21758;SDS011;11041;50.854;20.580;2023-03-14T12:03:28;9.23;;;4.13;;
21758;SDS011;11041;50.854;20.580;2023-03-14T12:08:52;6.70;;;3.25;;
21758;SDS011;11041;50.854;20.580;2023-03-14T12:14:33;8.55;;;4.30;;
21758;SDS011;11041;50.854;20.580;2023-03-14T12:19:38;11.75;;;4.38;;
21758;SDS011;11041;50.854;20.580;2023-03-14T12:22:08;5.72;;;3.15;;
21758;SDS011;11041;50.854;20.580;2023-03-14T12:25:06;6.20;;;3.70;;
21758;SDS011;11041;50.854;20.580;2023-03-14T12:35:47;6.45;;;3.88;;
21758;SDS011;11041;50.854;20.580;2023-03-14T12:46:58;9.18;;;4.82;;
21758;SDS011;11041;50.854;20.580;2023-03-14T12:49:51;9.45;;;4.15;;
21758;SDS011;11041;50.854;20.580;2023-03-14T13:01:28;11.75;;;5.43;;
21758;SDS011;11041;50.854;20.580;2023-03-14T13:03:56;9.15;;;4.57;;
21758;SDS011;11041;50.854;20.580;2023-03-14T13:06:47;7.32;;;4.10;;
21758;SDS011;11041;50.854;20.580;2023-03-14T13:11:55;8.80;;;4.85;;
21758;SDS011;11041;50.854;20.580;2023-03-14T13:14:30;9.43;;;5.22;;
21758;SDS011;11041;50.854;20.580;2023-03-14T13:17:00;11.10;;;5.63;;
21758;SDS011;11041;50.854;20.580;2023-03-14T13:19:28;8.15;;;4.47;;
21758;SDS011;11041;50.854;20.580;2023-03-14T13:22:06;9.15;;;4.28;;
21758;SDS011;11041;50.854;20.580;2023-03-14T13:24:45;8.68;;;4.60;;
21758;SDS011;11041;50.854;20.580;2023-03-14T13:27:17;6.75;;;4.30;;
21758;SDS011;11041;50.854;20.580;2023-03-14T13:29:50;8.02;;;4.38;;
21758;SDS011;11041;50.854;20.580;2023-03-14T13:32:19;9.27;;;4.80;;
21758;SDS011;11041;50.854;20.580;2023-03-14T13:34:55;11.40;;;4.47;;
21758;SDS011;11041;50.854;20.580;2023-03-14T13:37:24;9.27;;;4.68;;
21758;SDS011;11041;50.854;20.580;2023-03-14T13:39:56;11.50;;;4.80;;
21758;SDS011;11041;50.854;20.580;2023-03-14T13:42:26;6.65;;;3.65;;
21758;SDS011;11041;50.854;20.580;2023-03-14T13:44:55;9.82;;;3.90;;
21758;SDS011;11041;50.854;20.580;2023-03-14T13:47:24;7.05;;;4.00;;
21758;SDS011;11041;50.854;20.580;2023-03-14T13:49:53;8.15;;;4.25;;
21758;SDS011;11041;50.854;20.580;2023-03-14T13:54:57;6.13;;;3.85;;
21758;SDS011;11041;50.854;20.580;2023-03-14T13:57:26;10.38;;;4.28;;
21758;SDS011;11041;50.854;20.580;2023-03-14T14:00:05;6.85;;;3.58;;
21758;SDS011;11041;50.854;20.580;2023-03-14T14:02:43;6.38;;;4.28;;
21758;SDS011;11041;50.854;20.580;2023-03-14T14:05:11;8.27;;;4.70;;
21758;SDS011;11041;50.854;20.580;2023-03-14T14:07:38;8.55;;;4.28;;
21758;SDS011;11041;50.854;20.580;2023-03-14T14:10:10;9.20;;;5.00;;
21758;SDS011;11041;50.854;20.580;2023-03-14T14:12:42;8.85;;;4.57;;
21758;SDS011;11041;50.854;20.580;2023-03-14T14:15:41;8.52;;;4.30;;
21758;SDS011;11041;50.854;20.580;2023-03-14T14:18:12;9.15;;;4.53;;
21758;SDS011;11041;50.854;20.580;2023-03-14T14:20:47;10.80;;;5.38;;
21758;SDS011;11041;50.854;20.580;2023-03-14T14:23:19;6.05;;;3.35;;
21758;SDS011;11041;50.854;20.580;2023-03-14T14:25:55;7.53;;;4.63;;
21758;SDS011;11041;50.854;20.580;2023-03-14T14:28:27;8.38;;;5.40;;
21758;SDS011;11041;50.854;20.580;2023-03-14T14:33:44;11.23;;;5.95;;
21758;SDS011;11041;50.854;20.580;2023-03-14T14:36:37;7.47;;;4.30;;
21758;SDS011;11041;50.854;20.580;2023-03-14T14:39:26;11.48;;;5.15;;
21758;SDS011;11041;50.854;20.580;2023-03-14T14:41:54;9.77;;;5.07;;
21758;SDS011;11041;50.854;20.580;2023-03-14T14:44:30;9.43;;;5.22;;
21758;SDS011;11041;50.854;20.580;2023-03-14T14:47:02;8.02;;;5.03;;
21758;SDS011;11041;50.854;20.580;2023-03-14T14:49:30;9.02;;;5.65;;
21758;SDS011;11041;50.854;20.580;2023-03-14T14:52:00;11.27;;;6.25;;
21758;SDS011;11041;50.854;20.580;2023-03-14T14:54:40;9.80;;;5.78;;
21758;SDS011;11041;50.854;20.580;2023-03-14T14:57:40;8.30;;;5.03;;
21758;SDS011;11041;50.854;20.580;2023-03-14T15:00:19;9.23;;;4.88;;
21758;SDS011;11041;50.854;20.580;2023-03-14T15:02:53;6.57;;;4.82;;
21758;SDS011;11041;50.854;20.580;2023-03-14T15:05:26;8.13;;;4.72;;
21758;SDS011;11041;50.854;20.580;2023-03-14T15:07:56;9.10;;;5.15;;
21758;SDS011;11041;50.854;20.580;2023-03-14T15:10:24;8.48;;;4.90;;
21758;SDS011;11041;50.854;20.580;2023-03-14T15:12:51;10.98;;;5.32;;
21758;SDS011;11041;50.854;20.580;2023-03-14T15:15:18;7.72;;;5.32;;
21758;SDS011;11041;50.854;20.580;2023-03-14T15:17:45;8.02;;;5.05;;
21758;SDS011;11041;50.854;20.580;2023-03-14T15:20:12;8.27;;;5.25;;
21758;SDS011;11041;50.854;20.580;2023-03-14T15:22:44;7.85;;;4.82;;
21758;SDS011;11041;50.854;20.580;2023-03-14T15:25:11;8.13;;;4.97;;
21758;SDS011;11041;50.854;20.580;2023-03-14T15:27:38;7.13;;;4.20;;
21758;SDS011;11041;50.854;20.580;2023-03-14T15:30:15;5.82;;;3.55;;
21758;SDS011;11041;50.854;20.580;2023-03-14T15:32:42;5.93;;;3.33;;
21758;SDS011;11041;50.854;20.580;2023-03-14T15:35:08;6.10;;;3.63;;
21758;SDS011;11041;50.854;20.580;2023-03-14T15:37:36;3.65;;;3.17;;
21758;SDS011;11041;50.854;20.580;2023-03-14T15:40:03;4.63;;;2.97;;
21758;SDS011;11041;50.854;20.580;2023-03-14T15:42:38;4.97;;;3.63;;
21758;SDS011;11041;50.854;20.580;2023-03-14T15:45:06;8.00;;;3.83;;
21758;SDS011;11041;50.854;20.580;2023-03-14T15:47:33;7.70;;;4.10;;
21758;SDS011;11041;50.854;20.580;2023-03-14T15:50:00;7.30;;;4.50;;
21758;SDS011;11041;50.854;20.580;2023-03-14T15:52:26;13.45;;;7.60;;
21758;SDS011;11041;50.854;20.580;2023-03-14T15:54:53;79.18;;;36.92;;
21758;SDS011;11041;50.854;20.580;2023-03-14T15:57:19;72.60;;;43.40;;
21758;SDS011;11041;50.854;20.580;2023-03-14T15:59:46;36.00;;;18.25;;
21758;SDS011;11041;50.854;20.580;2023-03-14T16:02:12;100.82;;;43.53;;
21758;SDS011;11041;50.854;20.580;2023-03-14T16:04:39;270.83;;;140.18;;
21758;SDS011;11041;50.854;20.580;2023-03-14T16:07:05;514.63;;;255.73;;
21758;SDS011;11041;50.854;20.580;2023-03-14T16:09:32;241.57;;;107.38;;
21758;SDS011;11041;50.854;20.580;2023-03-14T16:11:58;31.48;;;19.55;;
21758;SDS011;11041;50.854;20.580;2023-03-14T16:14:25;81.65;;;53.80;;
21758;SDS011;11041;50.854;20.580;2023-03-14T16:16:52;172.93;;;116.15;;
21758;SDS011;11041;50.854;20.580;2023-03-14T16:19:20;252.07;;;180.02;;
21758;SDS011;11041;50.854;20.580;2023-03-14T16:21:46;307.80;;;107.13;;
21758;SDS011;11041;50.854;20.580;2023-03-14T16:24:13;67.93;;;44.25;;
21758;SDS011;11041;50.854;20.580;2023-03-14T16:26:39;112.35;;;73.80;;